sensor_id;sensor_type;location;lat;lon;timestamp;P1;durP1;ratioP1;P2;durP2;ratioP2
64651;SDS011;51062;45.120;37.660;2022-07-10T00:00:30;122.88;;;76.00;;
64651;SDS011;51062;45.120;37.660;2022-07-10T00:02:57;128.40;;;79.72;;
64651;SDS011;51062;45.120;37.660;2022-07-10T00:05:24;132.32;;;85.53;;
64651;SDS011;51062;45.120;37.660;2022-07-10T00:07:50;134.50;;;86.20;;
64651;SDS011;51062;45.120;37.660;2022-07-10T00:10:17;141.63;;;87.70;;
64651;SDS011;51062;45.120;37.660;2022-07-10T00:12:45;144.27;;;88.57;;
64651;SDS011;51062;45.120;37.660;2022-07-10T00:15:11;146.07;;;93.15;;
64651;SDS011;51062;45.120;37.660;2022-07-10T00:17:38;138.07;;;86.82;;
64651;SDS011;51062;45.120;37.660;2022-07-10T00:20:06;142.38;;;87.63;;
64651;SDS011;51062;45.120;37.660;2022-07-10T00:22:33;130.18;;;82.95;;
64651;SDS011;51062;45.120;37.660;2022-07-10T00:25:03;131.80;;;83.30;;
64651;SDS011;51062;45.120;37.660;2022-07-10T00:27:31;127.78;;;80.43;;
64651;SDS011;51062;45.120;37.660;2022-07-10T00:29:57;124.88;;;82.00;;
64651;SDS011;51062;45.120;37.660;2022-07-10T00:32:24;122.90;;;78.18;;
64651;SDS011;51062;45.120;37.660;2022-07-10T00:34:50;124.07;;;79.90;;
64651;SDS011;51062;45.120;37.660;2022-07-10T00:37:17;132.70;;;81.82;;
64651;SDS011;51062;45.120;37.660;2022-07-10T00:39:43;123.63;;;81.22;;
64651;SDS011;51062;45.120;37.660;2022-07-10T00:42:10;123.25;;;83.82;;
64651;SDS011;51062;45.120;37.660;2022-07-10T00:44:39;118.43;;;73.65;;
64651;SDS011;51062;45.120;37.660;2022-07-10T00:47:08;117.05;;;76.07;;
64651;SDS011;51062;45.120;37.660;2022-07-10T00:49:35;123.63;;;72.63;;
64651;SDS011;51062;45.120;37.660;2022-07-10T00:52:04;107.80;;;68.15;;
64651;SDS011;51062;45.120;37.660;2022-07-10T00:54:33;110.00;;;70.18;;
64651;SDS011;51062;45.120;37.660;2022-07-10T00:57:01;103.20;;;66.32;;
64651;SDS011;51062;45.120;37.660;2022-07-10T00:59:30;124.60;;;77.22;;
64651;SDS011;51062;45.120;37.660;2022-07-10T01:01:57;116.60;;;73.90;;
64651;SDS011;51062;45.120;37.660;2022-07-10T01:04:23;112.40;;;73.57;;
64651;SDS011;51062;45.120;37.660;2022-07-10T01:06:50;110.15;;;72.10;;
64651;SDS011;51062;45.120;37.660;2022-07-10T01:09:16;109.10;;;67.45;;
64651;SDS011;51062;45.120;37.660;2022-07-10T01:11:42;101.03;;;60.97;;
64651;SDS011;51062;45.120;37.660;2022-07-10T01:14:09;79.30;;;48.10;;
64651;SDS011;51062;45.120;37.660;2022-07-10T01:16:36;78.47;;;46.78;;
64651;SDS011;51062;45.120;37.660;2022-07-10T01:19:02;70.40;;;42.22;;
64651;SDS011;51062;45.120;37.660;2022-07-10T01:21:30;90.35;;;45.53;;
64651;SDS011;51062;45.120;37.660;2022-07-10T01:23:58;70.78;;;41.55;;
64651;SDS011;51062;45.120;37.660;2022-07-10T01:26:25;72.43;;;42.22;;
64651;SDS011;51062;45.120;37.660;2022-07-10T01:28:52;77.53;;;40.25;;
64651;SDS011;51062;45.120;37.660;2022-07-10T01:31:19;64.53;;;35.58;;
64651;SDS011;51062;45.120;37.660;2022-07-10T01:33:55;65.47;;;34.70;;
64651;SDS011;51062;45.120;37.660;2022-07-10T01:36:22;56.47;;;32.58;;
64651;SDS011;51062;45.120;37.660;2022-07-10T01:38:52;64.43;;;33.80;;
64651;SDS011;51062;45.120;37.660;2022-07-10T01:41:19;58.13;;;31.13;;
64651;SDS011;51062;45.120;37.660;2022-07-10T01:43:45;45.03;;;23.45;;
64651;SDS011;51062;45.120;37.660;2022-07-10T01:46:13;44.28;;;26.98;;
64651;SDS011;51062;45.120;37.660;2022-07-10T01:48:40;46.78;;;25.10;;
64651;SDS011;51062;45.120;37.660;2022-07-10T01:51:07;50.30;;;26.83;;
64651;SDS011;51062;45.120;37.660;2022-07-10T01:53:34;32.63;;;19.17;;
64651;SDS011;51062;45.120;37.660;2022-07-10T01:56:03;37.00;;;20.88;;
64651;SDS011;51062;45.120;37.660;2022-07-10T01:58:31;26.45;;;16.55;;
64651;SDS011;51062;45.120;37.660;2022-07-10T02:00:57;37.67;;;21.40;;
64651;SDS011;51062;45.120;37.660;2022-07-10T02:03:23;40.78;;;19.73;;
64651;SDS011;51062;45.120;37.660;2022-07-10T02:06:13;32.70;;;17.50;;
64651;SDS011;51062;45.120;37.660;2022-07-10T02:08:39;24.85;;;15.75;;
64651;SDS011;51062;45.120;37.660;2022-07-10T02:11:05;25.55;;;14.20;;
64651;SDS011;51062;45.120;37.660;2022-07-10T02:13:32;23.55;;;13.65;;
64651;SDS011;51062;45.120;37.660;2022-07-10T02:15:58;16.27;;;10.60;;
64651;SDS011;51062;45.120;37.660;2022-07-10T02:18:24;19.83;;;11.30;;
64651;SDS011;51062;45.120;37.660;2022-07-10T02:20:51;23.35;;;10.63;;
64651;SDS011;51062;45.120;37.660;2022-07-10T02:23:18;29.65;;;14.40;;
64651;SDS011;51062;45.120;37.660;2022-07-10T02:25:44;32.72;;;17.20;;
64651;SDS011;51062;45.120;37.660;2022-07-10T02:28:10;47.58;;;25.85;;
64651;SDS011;51062;45.120;37.660;2022-07-10T02:30:36;49.15;;;30.88;;
64651;SDS011;51062;45.120;37.660;2022-07-10T02:33:02;55.35;;;31.52;;
64651;SDS011;51062;45.120;37.660;2022-07-10T02:35:29;66.88;;;36.67;;
64651;SDS011;51062;45.120;37.660;2022-07-10T02:37:55;66.10;;;38.15;;
64651;SDS011;51062;45.120;37.660;2022-07-10T02:40:21;68.65;;;40.88;;
64651;SDS011;51062;45.120;37.660;2022-07-10T02:42:47;67.55;;;42.17;;
64651;SDS011;51062;45.120;37.660;2022-07-10T02:45:13;72.25;;;42.53;;
64651;SDS011;51062;45.120;37.660;2022-07-10T02:47:39;74.20;;;41.85;;
64651;SDS011;51062;45.120;37.660;2022-07-10T02:50:05;68.90;;;40.50;;
64651;SDS011;51062;45.120;37.660;2022-07-10T02:52:32;61.33;;;37.67;;
64651;SDS011;51062;45.120;37.660;2022-07-10T02:54:58;61.85;;;37.15;;
64651;SDS011;51062;45.120;37.660;2022-07-10T02:57:24;60.78;;;36.88;;
64651;SDS011;51062;45.120;37.660;2022-07-10T02:59:51;55.63;;;34.38;;
64651;SDS011;51062;45.120;37.660;2022-07-10T03:02:17;55.55;;;32.60;;
64651;SDS011;51062;45.120;37.660;2022-07-10T03:04:43;43.30;;;25.35;;
64651;SDS011;51062;45.120;37.660;2022-07-10T03:07:10;43.08;;;22.55;;
64651;SDS011;51062;45.120;37.660;2022-07-10T03:09:36;34.20;;;17.63;;
64651;SDS011;51062;45.120;37.660;2022-07-10T03:12:02;29.42;;;15.00;;
64651;SDS011;51062;45.120;37.660;2022-07-10T03:14:28;21.88;;;10.50;;
64651;SDS011;51062;45.120;37.660;2022-07-10T03:16:54;17.88;;;8.20;;
64651;SDS011;51062;45.120;37.660;2022-07-10T03:19:20;19.75;;;5.80;;
64651;SDS011;51062;45.120;37.660;2022-07-10T03:21:46;12.32;;;6.05;;
64651;SDS011;51062;45.120;37.660;2022-07-10T03:24:12;13.80;;;5.05;;
64651;SDS011;51062;45.120;37.660;2022-07-10T03:26:39;16.48;;;6.20;;
64651;SDS011;51062;45.120;37.660;2022-07-10T03:29:05;16.30;;;5.53;;
64651;SDS011;51062;45.120;37.660;2022-07-10T03:31:31;15.02;;;7.10;;
64651;SDS011;51062;45.120;37.660;2022-07-10T03:33:57;20.40;;;10.45;;
64651;SDS011;51062;45.120;37.660;2022-07-10T03:36:23;22.48;;;11.90;;
64651;SDS011;51062;45.120;37.660;2022-07-10T03:38:49;27.00;;;19.50;;
64651;SDS011;51062;45.120;37.660;2022-07-10T03:41:15;26.27;;;18.15;;
64651;SDS011;51062;45.120;37.660;2022-07-10T03:43:41;29.02;;;18.75;;
64651;SDS011;51062;45.120;37.660;2022-07-10T03:46:07;39.40;;;20.65;;
64651;SDS011;51062;45.120;37.660;2022-07-10T03:48:33;39.28;;;24.40;;
64651;SDS011;51062;45.120;37.660;2022-07-10T03:51:00;34.97;;;25.08;;
64651;SDS011;51062;45.120;37.660;2022-07-10T03:53:27;32.20;;;21.80;;
64651;SDS011;51062;45.120;37.660;2022-07-10T03:55:53;39.25;;;20.33;;
64651;SDS011;51062;45.120;37.660;2022-07-10T03:58:20;42.33;;;14.68;;
64651;SDS011;51062;45.120;37.660;2022-07-10T04:00:46;32.80;;;16.50;;
64651;SDS011;51062;45.120;37.660;2022-07-10T04:03:12;27.67;;;15.95;;
64651;SDS011;51062;45.120;37.660;2022-07-10T04:05:39;20.95;;;10.02;;
64651;SDS011;51062;45.120;37.660;2022-07-10T04:08:06;21.20;;;7.68;;
64651;SDS011;51062;45.120;37.660;2022-07-10T04:10:34;15.55;;;6.07;;
64651;SDS011;51062;45.120;37.660;2022-07-10T04:13:00;15.73;;;3.40;;
64651;SDS011;51062;45.120;37.660;2022-07-10T04:15:26;13.45;;;3.53;;
64651;SDS011;51062;45.120;37.660;2022-07-10T04:17:52;13.35;;;2.90;;
64651;SDS011;51062;45.120;37.660;2022-07-10T04:20:19;9.63;;;2.63;;
64651;SDS011;51062;45.120;37.660;2022-07-10T04:22:46;8.35;;;2.90;;
64651;SDS011;51062;45.120;37.660;2022-07-10T04:25:12;8.57;;;3.42;;
64651;SDS011;51062;45.120;37.660;2022-07-10T04:27:38;8.20;;;2.53;;
64651;SDS011;51062;45.120;37.660;2022-07-10T04:30:05;4.40;;;2.50;;
64651;SDS011;51062;45.120;37.660;2022-07-10T04:32:31;6.43;;;2.20;;
64651;SDS011;51062;45.120;37.660;2022-07-10T04:34:58;19.50;;;3.20;;
64651;SDS011;51062;45.120;37.660;2022-07-10T04:37:24;11.85;;;3.22;;
64651;SDS011;51062;45.120;37.660;2022-07-10T04:39:50;13.13;;;3.30;;
64651;SDS011;51062;45.120;37.660;2022-07-10T04:42:16;17.80;;;2.95;;
64651;SDS011;51062;45.120;37.660;2022-07-10T04:44:42;5.97;;;2.40;;
64651;SDS011;51062;45.120;37.660;2022-07-10T04:47:08;8.20;;;2.72;;
64651;SDS011;51062;45.120;37.660;2022-07-10T04:49:34;11.18;;;3.28;;
64651;SDS011;51062;45.120;37.660;2022-07-10T04:52:00;8.82;;;2.95;;
64651;SDS011;51062;45.120;37.660;2022-07-10T04:54:27;14.93;;;3.75;;
64651;SDS011;51062;45.120;37.660;2022-07-10T04:56:53;14.20;;;2.90;;
64651;SDS011;51062;45.120;37.660;2022-07-10T04:59:19;9.82;;;3.67;;
64651;SDS011;51062;45.120;37.660;2022-07-10T05:01:45;9.63;;;2.83;;
64651;SDS011;51062;45.120;37.660;2022-07-10T05:04:11;8.73;;;2.80;;
64651;SDS011;51062;45.120;37.660;2022-07-10T05:06:38;5.45;;;2.40;;
64651;SDS011;51062;45.120;37.660;2022-07-10T05:09:04;16.08;;;2.65;;
64651;SDS011;51062;45.120;37.660;2022-07-10T05:11:30;11.35;;;2.58;;
64651;SDS011;51062;45.120;37.660;2022-07-10T05:13:57;11.57;;;3.50;;
64651;SDS011;51062;45.120;37.660;2022-07-10T05:16:23;7.00;;;2.70;;
64651;SDS011;51062;45.120;37.660;2022-07-10T05:18:49;11.88;;;2.83;;
64651;SDS011;51062;45.120;37.660;2022-07-10T05:21:16;9.77;;;2.92;;
64651;SDS011;51062;45.120;37.660;2022-07-10T05:23:42;10.73;;;2.40;;
64651;SDS011;51062;45.120;37.660;2022-07-10T05:26:08;13.07;;;2.75;;
64651;SDS011;51062;45.120;37.660;2022-07-10T05:28:34;9.82;;;2.85;;
64651;SDS011;51062;45.120;37.660;2022-07-10T05:31:00;16.42;;;2.67;;
64651;SDS011;51062;45.120;37.660;2022-07-10T05:33:26;10.30;;;2.60;;
64651;SDS011;51062;45.120;37.660;2022-07-10T05:35:53;6.25;;;2.78;;
64651;SDS011;51062;45.120;37.660;2022-07-10T05:38:20;10.10;;;2.53;;
64651;SDS011;51062;45.120;37.660;2022-07-10T05:40:46;10.02;;;2.30;;
64651;SDS011;51062;45.120;37.660;2022-07-10T05:43:12;9.98;;;2.30;;
64651;SDS011;51062;45.120;37.660;2022-07-10T05:45:38;17.52;;;2.58;;
64651;SDS011;51062;45.120;37.660;2022-07-10T05:48:05;10.70;;;2.25;;
64651;SDS011;51062;45.120;37.660;2022-07-10T05:50:31;17.13;;;2.60;;
64651;SDS011;51062;45.120;37.660;2022-07-10T05:52:57;13.95;;;2.70;;
64651;SDS011;51062;45.120;37.660;2022-07-10T05:55:23;8.00;;;2.20;;
64651;SDS011;51062;45.120;37.660;2022-07-10T05:57:49;11.90;;;1.90;;
64651;SDS011;51062;45.120;37.660;2022-07-10T06:00:20;9.80;;;1.90;;
64651;SDS011;51062;45.120;37.660;2022-07-10T06:02:46;8.00;;;2.00;;
64651;SDS011;51062;45.120;37.660;2022-07-10T06:05:12;13.07;;;3.00;;
64651;SDS011;51062;45.120;37.660;2022-07-10T06:07:38;5.70;;;1.75;;
64651;SDS011;51062;45.120;37.660;2022-07-10T06:10:04;37.88;;;2.95;;
64651;SDS011;51062;45.120;37.660;2022-07-10T06:12:31;12.35;;;2.30;;
64651;SDS011;51062;45.120;37.660;2022-07-10T06:14:58;8.82;;;2.00;;
64651;SDS011;51062;45.120;37.660;2022-07-10T06:17:24;15.30;;;2.20;;
64651;SDS011;51062;45.120;37.660;2022-07-10T06:19:50;12.65;;;2.10;;
64651;SDS011;51062;45.120;37.660;2022-07-10T06:22:16;7.97;;;2.30;;
64651;SDS011;51062;45.120;37.660;2022-07-10T06:25:01;12.48;;;2.50;;
64651;SDS011;51062;45.120;37.660;2022-07-10T06:27:31;11.90;;;2.22;;
64651;SDS011;51062;45.120;37.660;2022-07-10T06:29:58;11.90;;;2.03;;
64651;SDS011;51062;45.120;37.660;2022-07-10T06:32:25;8.13;;;2.20;;
64651;SDS011;51062;45.120;37.660;2022-07-10T06:34:52;13.25;;;2.63;;
64651;SDS011;51062;45.120;37.660;2022-07-10T06:37:19;12.27;;;2.13;;
64651;SDS011;51062;45.120;37.660;2022-07-10T06:39:45;7.28;;;2.17;;
64651;SDS011;51062;45.120;37.660;2022-07-10T06:42:13;12.13;;;2.03;;
64651;SDS011;51062;45.120;37.660;2022-07-10T06:44:41;5.38;;;2.00;;
64651;SDS011;51062;45.120;37.660;2022-07-10T06:47:08;13.32;;;2.30;;
64651;SDS011;51062;45.120;37.660;2022-07-10T06:49:53;6.13;;;2.30;;
64651;SDS011;51062;45.120;37.660;2022-07-10T06:52:20;6.15;;;2.38;;
64651;SDS011;51062;45.120;37.660;2022-07-10T06:54:46;14.63;;;2.45;;
64651;SDS011;51062;45.120;37.660;2022-07-10T06:57:13;15.45;;;2.80;;
64651;SDS011;51062;45.120;37.660;2022-07-10T06:59:39;19.27;;;2.40;;
64651;SDS011;51062;45.120;37.660;2022-07-10T07:02:05;13.32;;;3.13;;
64651;SDS011;51062;45.120;37.660;2022-07-10T07:04:31;18.38;;;3.05;;
64651;SDS011;51062;45.120;37.660;2022-07-10T07:06:57;12.38;;;2.78;;
64651;SDS011;51062;45.120;37.660;2022-07-10T07:09:23;10.20;;;2.40;;
64651;SDS011;51062;45.120;37.660;2022-07-10T07:11:50;11.07;;;2.60;;
64651;SDS011;51062;45.120;37.660;2022-07-10T07:14:16;15.68;;;3.05;;
64651;SDS011;51062;45.120;37.660;2022-07-10T07:16:42;10.48;;;2.90;;
64651;SDS011;51062;45.120;37.660;2022-07-10T07:19:11;7.25;;;2.35;;
64651;SDS011;51062;45.120;37.660;2022-07-10T07:21:43;8.00;;;2.88;;
64651;SDS011;51062;45.120;37.660;2022-07-10T07:24:28;15.23;;;2.92;;
64651;SDS011;51062;45.120;37.660;2022-07-10T07:26:54;10.30;;;3.03;;
64651;SDS011;51062;45.120;37.660;2022-07-10T07:29:20;16.15;;;2.50;;
64651;SDS011;51062;45.120;37.660;2022-07-10T07:31:46;11.70;;;2.75;;
64651;SDS011;51062;45.120;37.660;2022-07-10T07:34:12;10.63;;;3.08;;
64651;SDS011;51062;45.120;37.660;2022-07-10T07:36:38;9.75;;;3.15;;
64651;SDS011;51062;45.120;37.660;2022-07-10T07:39:05;12.45;;;3.25;;
64651;SDS011;51062;45.120;37.660;2022-07-10T07:41:31;113.80;;;6.28;;
64651;SDS011;51062;45.120;37.660;2022-07-10T07:43:57;17.23;;;3.15;;
64651;SDS011;51062;45.120;37.660;2022-07-10T07:46:23;10.13;;;3.53;;
64651;SDS011;51062;45.120;37.660;2022-07-10T07:48:49;11.50;;;3.25;;
64651;SDS011;51062;45.120;37.660;2022-07-10T07:51:16;16.98;;;3.25;;
64651;SDS011;51062;45.120;37.660;2022-07-10T07:53:42;9.10;;;3.10;;
64651;SDS011;51062;45.120;37.660;2022-07-10T07:56:09;12.98;;;3.97;;
64651;SDS011;51062;45.120;37.660;2022-07-10T07:58:35;27.35;;;3.60;;
64651;SDS011;51062;45.120;37.660;2022-07-10T08:01:01;19.70;;;3.40;;
64651;SDS011;51062;45.120;37.660;2022-07-10T08:03:27;10.20;;;3.03;;
64651;SDS011;51062;45.120;37.660;2022-07-10T08:05:54;9.57;;;3.00;;
64651;SDS011;51062;45.120;37.660;2022-07-10T08:08:20;19.27;;;3.72;;
64651;SDS011;51062;45.120;37.660;2022-07-10T08:10:46;18.25;;;2.75;;
64651;SDS011;51062;45.120;37.660;2022-07-10T08:13:12;9.07;;;3.17;;
64651;SDS011;51062;45.120;37.660;2022-07-10T08:15:38;8.60;;;3.65;;
64651;SDS011;51062;45.120;37.660;2022-07-10T08:18:04;92.95;;;5.93;;
64651;SDS011;51062;45.120;37.660;2022-07-10T08:20:32;14.57;;;3.38;;
64651;SDS011;51062;45.120;37.660;2022-07-10T08:22:59;11.23;;;3.03;;
64651;SDS011;51062;45.120;37.660;2022-07-10T08:25:25;11.05;;;3.22;;
64651;SDS011;51062;45.120;37.660;2022-07-10T08:27:51;10.43;;;2.88;;
64651;SDS011;51062;45.120;37.660;2022-07-10T08:30:18;16.75;;;3.63;;
64651;SDS011;51062;45.120;37.660;2022-07-10T08:32:44;15.25;;;3.63;;
64651;SDS011;51062;45.120;37.660;2022-07-10T08:35:10;16.02;;;3.40;;
64651;SDS011;51062;45.120;37.660;2022-07-10T08:37:39;8.75;;;3.05;;
64651;SDS011;51062;45.120;37.660;2022-07-10T08:40:06;24.17;;;4.28;;
64651;SDS011;51062;45.120;37.660;2022-07-10T08:42:34;8.93;;;3.15;;
64651;SDS011;51062;45.120;37.660;2022-07-10T08:45:00;13.07;;;3.83;;
64651;SDS011;51062;45.120;37.660;2022-07-10T08:47:26;435.88;;;20.90;;
64651;SDS011;51062;45.120;37.660;2022-07-10T08:49:56;8.63;;;2.90;;
64651;SDS011;51062;45.120;37.660;2022-07-10T08:52:25;7.13;;;3.20;;
64651;SDS011;51062;45.120;37.660;2022-07-10T08:55:06;13.75;;;3.40;;
64651;SDS011;51062;45.120;37.660;2022-07-10T08:57:32;10.20;;;3.20;;
64651;SDS011;51062;45.120;37.660;2022-07-10T09:00:00;10.82;;;3.53;;
64651;SDS011;51062;45.120;37.660;2022-07-10T09:02:26;11.48;;;3.20;;
64651;SDS011;51062;45.120;37.660;2022-07-10T09:04:52;12.98;;;3.40;;
64651;SDS011;51062;45.120;37.660;2022-07-10T09:07:18;8.25;;;3.15;;
64651;SDS011;51062;45.120;37.660;2022-07-10T09:09:51;12.52;;;3.17;;
64651;SDS011;51062;45.120;37.660;2022-07-10T09:12:22;10.35;;;3.70;;
64651;SDS011;51062;45.120;37.660;2022-07-10T09:14:49;14.02;;;5.20;;
64651;SDS011;51062;45.120;37.660;2022-07-10T09:17:16;20.73;;;6.07;;
64651;SDS011;51062;45.120;37.660;2022-07-10T09:19:43;13.95;;;5.97;;
64651;SDS011;51062;45.120;37.660;2022-07-10T09:22:10;11.88;;;5.35;;
64651;SDS011;51062;45.120;37.660;2022-07-10T09:24:44;46.22;;;15.48;;
64651;SDS011;51062;45.120;37.660;2022-07-10T09:27:12;10.75;;;5.38;;
64651;SDS011;51062;45.120;37.660;2022-07-10T09:29:48;11.48;;;3.05;;
64651;SDS011;51062;45.120;37.660;2022-07-10T09:32:23;15.95;;;3.42;;
64651;SDS011;51062;45.120;37.660;2022-07-10T09:34:50;16.23;;;4.10;;
64651;SDS011;51062;45.120;37.660;2022-07-10T09:37:37;9.88;;;3.45;;
64651;SDS011;51062;45.120;37.660;2022-07-10T09:40:05;7.07;;;3.10;;
64651;SDS011;51062;45.120;37.660;2022-07-10T09:47:58;12.05;;;4.97;;
64651;SDS011;51062;45.120;37.660;2022-07-10T09:50:35;13.77;;;3.83;;
64651;SDS011;51062;45.120;37.660;2022-07-10T09:53:02;13.88;;;3.78;;
64651;SDS011;51062;45.120;37.660;2022-07-10T09:55:35;14.05;;;3.53;;
64651;SDS011;51062;45.120;37.660;2022-07-10T09:58:08;9.27;;;3.20;;
64651;SDS011;51062;45.120;37.660;2022-07-10T10:00:36;8.77;;;3.10;;
64651;SDS011;51062;45.120;37.660;2022-07-10T10:03:04;8.05;;;3.10;;
64651;SDS011;51062;45.120;37.660;2022-07-10T10:05:39;13.15;;;3.17;;
64651;SDS011;51062;45.120;37.660;2022-07-10T10:08:18;20.73;;;4.05;;
64651;SDS011;51062;45.120;37.660;2022-07-10T10:10:48;16.20;;;3.33;;
64651;SDS011;51062;45.120;37.660;2022-07-10T10:13:16;18.42;;;3.25;;
64651;SDS011;51062;45.120;37.660;2022-07-10T10:15:45;9.20;;;3.20;;
64651;SDS011;51062;45.120;37.660;2022-07-10T10:18:13;9.13;;;3.58;;
64651;SDS011;51062;45.120;37.660;2022-07-10T10:20:41;7.68;;;3.22;;
64651;SDS011;51062;45.120;37.660;2022-07-10T10:23:18;18.58;;;3.85;;
64651;SDS011;51062;45.120;37.660;2022-07-10T10:25:46;10.43;;;3.15;;
64651;SDS011;51062;45.120;37.660;2022-07-10T10:28:13;233.30;;;14.30;;
64651;SDS011;51062;45.120;37.660;2022-07-10T10:30:42;6.03;;;2.83;;
64651;SDS011;51062;45.120;37.660;2022-07-10T10:35:57;13.30;;;2.72;;
64651;SDS011;51062;45.120;37.660;2022-07-10T10:41:26;8.95;;;3.42;;
64651;SDS011;51062;45.120;37.660;2022-07-10T10:46:33;13.88;;;3.70;;
64651;SDS011;51062;45.120;37.660;2022-07-10T10:49:04;7.10;;;3.35;;
64651;SDS011;51062;45.120;37.660;2022-07-10T10:57:16;7.70;;;3.20;;
64651;SDS011;51062;45.120;37.660;2022-07-10T11:02:25;10.65;;;3.63;;
64651;SDS011;51062;45.120;37.660;2022-07-10T11:07:53;13.63;;;3.58;;
64651;SDS011;51062;45.120;37.660;2022-07-10T11:10:27;12.23;;;3.42;;
64651;SDS011;51062;45.120;37.660;2022-07-10T11:13:13;8.65;;;3.15;;
64651;SDS011;51062;45.120;37.660;2022-07-10T11:15:42;8.93;;;3.10;;
64651;SDS011;51062;45.120;37.660;2022-07-10T11:18:13;13.70;;;3.38;;
64651;SDS011;51062;45.120;37.660;2022-07-10T11:20:45;14.32;;;4.63;;
64651;SDS011;51062;45.120;37.660;2022-07-10T11:26:06;8.25;;;3.83;;
64651;SDS011;51062;45.120;37.660;2022-07-10T11:31:02;7.63;;;3.80;;
64651;SDS011;51062;45.120;37.660;2022-07-10T11:33:29;10.15;;;3.85;;
64651;SDS011;51062;45.120;37.660;2022-07-10T11:36:10;10.07;;;3.40;;
64651;SDS011;51062;45.120;37.660;2022-07-10T11:38:43;7.97;;;3.13;;
64651;SDS011;51062;45.120;37.660;2022-07-10T11:41:17;8.50;;;3.03;;
64651;SDS011;51062;45.120;37.660;2022-07-10T11:43:47;7.03;;;3.25;;
64651;SDS011;51062;45.120;37.660;2022-07-10T11:48:58;14.13;;;3.33;;
64651;SDS011;51062;45.120;37.660;2022-07-10T11:51:31;9.75;;;2.80;;
64651;SDS011;51062;45.120;37.660;2022-07-10T11:56:30;7.65;;;3.60;;
64651;SDS011;51062;45.120;37.660;2022-07-10T11:59:06;11.18;;;3.85;;
64651;SDS011;51062;45.120;37.660;2022-07-10T12:01:43;8.32;;;3.20;;
64651;SDS011;51062;45.120;37.660;2022-07-10T12:04:10;9.25;;;3.20;;
64651;SDS011;51062;45.120;37.660;2022-07-10T12:06:38;9.18;;;3.25;;
64651;SDS011;51062;45.120;37.660;2022-07-10T12:11:37;6.65;;;3.17;;
64651;SDS011;51062;45.120;37.660;2022-07-10T12:14:13;12.85;;;3.47;;
64651;SDS011;51062;45.120;37.660;2022-07-10T12:16:48;27.02;;;3.60;;
64651;SDS011;51062;45.120;37.660;2022-07-10T12:19:19;9.90;;;3.13;;
64651;SDS011;51062;45.120;37.660;2022-07-10T12:21:48;10.73;;;2.90;;
64651;SDS011;51062;45.120;37.660;2022-07-10T12:24:18;13.10;;;3.00;;
64651;SDS011;51062;45.120;37.660;2022-07-10T12:29:22;11.18;;;3.30;;
64651;SDS011;51062;45.120;37.660;2022-07-10T12:31:51;13.05;;;3.08;;
64651;SDS011;51062;45.120;37.660;2022-07-10T12:34:20;10.98;;;3.30;;
64651;SDS011;51062;45.120;37.660;2022-07-10T12:37:08;8.55;;;3.20;;
64651;SDS011;51062;45.120;37.660;2022-07-10T12:39:52;18.80;;;3.10;;
64651;SDS011;51062;45.120;37.660;2022-07-10T12:42:25;9.25;;;2.83;;
64651;SDS011;51062;45.120;37.660;2022-07-10T12:44:52;12.10;;;2.97;;
64651;SDS011;51062;45.120;37.660;2022-07-10T12:47:19;9.85;;;2.80;;
64651;SDS011;51062;45.120;37.660;2022-07-10T12:52:20;19.27;;;3.42;;
64651;SDS011;51062;45.120;37.660;2022-07-10T12:57:51;13.40;;;3.55;;
64651;SDS011;51062;45.120;37.660;2022-07-10T13:00:19;13.63;;;4.00;;
64651;SDS011;51062;45.120;37.660;2022-07-10T13:02:46;15.48;;;5.60;;
64651;SDS011;51062;45.120;37.660;2022-07-10T13:10:54;9.80;;;2.88;;
64651;SDS011;51062;45.120;37.660;2022-07-10T13:13:22;13.55;;;3.35;;
64651;SDS011;51062;45.120;37.660;2022-07-10T13:15:48;9.55;;;3.13;;
64651;SDS011;51062;45.120;37.660;2022-07-10T13:18:23;8.43;;;3.27;;
64651;SDS011;51062;45.120;37.660;2022-07-10T13:20:53;8.45;;;3.15;;
64651;SDS011;51062;45.120;37.660;2022-07-10T13:23:21;24.45;;;3.97;;
64651;SDS011;51062;45.120;37.660;2022-07-10T13:25:49;12.20;;;4.07;;
64651;SDS011;51062;45.120;37.660;2022-07-10T13:28:15;10.70;;;3.53;;
64651;SDS011;51062;45.120;37.660;2022-07-10T13:30:42;16.35;;;3.30;;
64651;SDS011;51062;45.120;37.660;2022-07-10T13:33:08;12.13;;;3.50;;
64651;SDS011;51062;45.120;37.660;2022-07-10T13:35:35;12.65;;;3.15;;
64651;SDS011;51062;45.120;37.660;2022-07-10T13:38:02;31.20;;;4.00;;
64651;SDS011;51062;45.120;37.660;2022-07-10T13:40:30;20.05;;;4.28;;
64651;SDS011;51062;45.120;37.660;2022-07-10T13:42:57;14.82;;;3.28;;
64651;SDS011;51062;45.120;37.660;2022-07-10T13:45:24;12.60;;;3.17;;
64651;SDS011;51062;45.120;37.660;2022-07-10T13:47:55;28.33;;;3.83;;
64651;SDS011;51062;45.120;37.660;2022-07-10T13:50:22;8.00;;;2.90;;
64651;SDS011;51062;45.120;37.660;2022-07-10T13:52:49;11.77;;;3.08;;
64651;SDS011;51062;45.120;37.660;2022-07-10T13:55:15;20.02;;;3.13;;
64651;SDS011;51062;45.120;37.660;2022-07-10T13:57:41;15.60;;;3.85;;
64651;SDS011;51062;45.120;37.660;2022-07-10T14:00:08;12.25;;;3.10;;
64651;SDS011;51062;45.120;37.660;2022-07-10T14:02:37;12.25;;;3.08;;
64651;SDS011;51062;45.120;37.660;2022-07-10T14:05:04;12.13;;;2.92;;
64651;SDS011;51062;45.120;37.660;2022-07-10T14:07:33;4.55;;;2.90;;
64651;SDS011;51062;45.120;37.660;2022-07-10T14:09:59;11.45;;;3.10;;
64651;SDS011;51062;45.120;37.660;2022-07-10T14:12:26;9.32;;;3.13;;
64651;SDS011;51062;45.120;37.660;2022-07-10T14:14:52;10.13;;;3.33;;
64651;SDS011;51062;45.120;37.660;2022-07-10T14:17:19;9.07;;;2.70;;
64651;SDS011;51062;45.120;37.660;2022-07-10T14:19:46;15.68;;;3.55;;
64651;SDS011;51062;45.120;37.660;2022-07-10T14:22:12;9.73;;;3.30;;
64651;SDS011;51062;45.120;37.660;2022-07-10T14:24:38;6.60;;;3.03;;
64651;SDS011;51062;45.120;37.660;2022-07-10T14:27:04;29.33;;;4.25;;
64651;SDS011;51062;45.120;37.660;2022-07-10T14:29:31;16.45;;;3.08;;
64651;SDS011;51062;45.120;37.660;2022-07-10T14:31:57;12.63;;;3.72;;
64651;SDS011;51062;45.120;37.660;2022-07-10T14:34:31;16.90;;;3.28;;
64651;SDS011;51062;45.120;37.660;2022-07-10T14:36:57;30.80;;;3.53;;
64651;SDS011;51062;45.120;37.660;2022-07-10T14:39:23;8.98;;;2.83;;
64651;SDS011;51062;45.120;37.660;2022-07-10T14:41:49;13.80;;;3.20;;
64651;SDS011;51062;45.120;37.660;2022-07-10T14:44:15;6.22;;;2.92;;
64651;SDS011;51062;45.120;37.660;2022-07-10T14:46:41;10.35;;;2.63;;
64651;SDS011;51062;45.120;37.660;2022-07-10T14:49:08;6.63;;;2.88;;
64651;SDS011;51062;45.120;37.660;2022-07-10T14:51:34;11.30;;;2.63;;
64651;SDS011;51062;45.120;37.660;2022-07-10T14:54:01;8.45;;;2.90;;
64651;SDS011;51062;45.120;37.660;2022-07-10T14:56:28;9.02;;;2.97;;
64651;SDS011;51062;45.120;37.660;2022-07-10T14:58:54;9.40;;;3.08;;
64651;SDS011;51062;45.120;37.660;2022-07-10T15:01:20;14.10;;;3.35;;
64651;SDS011;51062;45.120;37.660;2022-07-10T15:03:46;12.50;;;3.33;;
64651;SDS011;51062;45.120;37.660;2022-07-10T15:06:12;7.97;;;3.13;;
64651;SDS011;51062;45.120;37.660;2022-07-10T15:08:38;8.35;;;3.17;;
64651;SDS011;51062;45.120;37.660;2022-07-10T15:11:04;8.35;;;2.80;;
64651;SDS011;51062;45.120;37.660;2022-07-10T15:13:32;7.88;;;3.33;;
64651;SDS011;51062;45.120;37.660;2022-07-10T15:15:59;11.38;;;3.45;;